Current Weather Conditions: station NFBF1

sailwx.info

Wind from 280 at 7 knots gusting 8

Air temperature 29.8° C

Last reported at 2014-Oct-01 18:54 UTC.
Time now 2014-Oct-01 22:26 UTC

Location: N 25°05' W 081°05'.
View on Google Maps.

See reports from other nearby stations

  
Tides and Currents Weather Stations Pressure Air Temp Water Temp Dewpoint Dewpoint Depression Visibility Wind Speed Wind Dir Waves Ship Positions
date/time (UTC)wind fromknots sea level pressurealtimeterstation pressurevisibilityair tempwater tempwave heightnotes
2014-Oct-01 18:54 280 7 gusting 8 29.8
2014-Oct-01 18:48 290 6 gusting 7 29.8
2014-Oct-01 18:42 290 6 gusting 8 29.8
2014-Oct-01 18:36 280 6 gusting 7 29.8
2014-Oct-01 18:30 280 5 gusting 7 29.7
2014-Oct-01 18:24 290 5 gusting 6 29.8
2014-Oct-01 18:18 290 4 gusting 6 29.8
2014-Oct-01 18:12 290 4 gusting 6 29.7
2014-Oct-01 18:06 280 5 gusting 6 29.7
2014-Oct-01 18:00 280 5 gusting 6 29.7
2014-Oct-01 17:54 280 5 gusting 7 29.8
2014-Oct-01 17:48 270 6 gusting 7 29.8
2014-Oct-01 16:54 320 2 gusting 5 29.6
2014-Oct-01 16:48 310 3 gusting 5 29.6
2014-Oct-01 16:42 320 2 gusting 4 29.6
2014-Oct-01 16:36 290 4 gusting 6 29.7
2014-Oct-01 16:30 270 5 gusting 6 29.6
2014-Oct-01 16:24 290 5 gusting 7 29.6
2014-Oct-01 16:18 300 3 gusting 6 29.7
2014-Oct-01 16:12 300 4 gusting 7 29.6
2014-Oct-01 16:06 270 6 gusting 8 29.6
2014-Oct-01 16:00 290 5 gusting 7 29.6
2014-Oct-01 15:54 270 6 gusting 8 29.6
2014-Oct-01 15:48 270 6 gusting 8 29.6
2014-Oct-01 14:54 260 6 gusting 8 29.5
2014-Oct-01 14:48 260 7 gusting 8 29.5
2014-Oct-01 14:42 270 5 gusting 6 29.5
2014-Oct-01 14:36 270 6 gusting 8 29.5
2014-Oct-01 14:30 260 7 gusting 9 29.4
2014-Oct-01 14:24 250 7 gusting 9 29.4
2014-Oct-01 14:18 250 8 gusting 9 29.4
2014-Oct-01 14:12 260 7 gusting 8 29.4
2014-Oct-01 14:06 270 6 gusting 8 29.5
2014-Oct-01 14:00 260 7 gusting 8 29.5
2014-Oct-01 13:54 270 5 gusting 7 29.4
2014-Oct-01 13:48 260 7 gusting 9 29.4
2014-Oct-01 13:42 260 7 gusting 8 29.4
2014-Oct-01 13:36 260 7 gusting 8 29.4
2014-Oct-01 13:30 260 7 gusting 8 29.4
2014-Oct-01 13:24 240 9 gusting 11 29.4
2014-Oct-01 13:18 240 9 gusting 10 29.4
2014-Oct-01 13:12 240 9 gusting 11 29.4
2014-Oct-01 13:06 240 10 gusting 11 29.4
2014-Oct-01 13:00 240 9 gusting 11 29.4
2014-Oct-01 12:54 230 9 gusting 11 29.4
2014-Oct-01 12:48 230 9 gusting 11 29.4
2014-Oct-01 11:54 240 9 gusting 12 29.2
2014-Oct-01 11:48 230 9 gusting 11 29.3
2014-Oct-01 10:54 230 9 gusting 10 29.4
2014-Oct-01 10:48 230 10 gusting 12 29.5
2014-Oct-01 10:30 230 9 gusting 11 29.3
2014-Oct-01 10:24 230 9 gusting 11 29.3
2014-Oct-01 10:18 240 9 gusting 11 29.3
2014-Oct-01 10:12 240 9 gusting 10 29.3
2014-Oct-01 10:06 230 9 gusting 11 29.3
2014-Oct-01 10:00 230 8 gusting 10 29.4
2014-Oct-01 09:54 230 8 gusting 10 29.4
2014-Oct-01 09:48 230 9 gusting 10 29.4
2014-Oct-01 08:54 220 8 gusting 10 29.3
2014-Oct-01 08:48 220 8 gusting 11 29.2
2014-Oct-01 08:42 210 8 gusting 9 29.3
2014-Oct-01 08:36 220 7 gusting 9 29.2
2014-Oct-01 08:30 230 7 gusting 10 29.1
2014-Oct-01 08:24 230 7 gusting 9 29.2
2014-Oct-01 08:18 230 7 gusting 9 29.1
2014-Oct-01 08:12 230 7 gusting 8 29.1
2014-Oct-01 08:06 220 7 gusting 8 29.1
2014-Oct-01 08:00 220 7 gusting 8 29.1
2014-Oct-01 07:54 220 7 gusting 8 29.1
2014-Oct-01 07:48 220 6 gusting 8 29.1
2014-Oct-01 06:54 230 6 gusting 7 29.2
2014-Oct-01 06:48 230 6 gusting 7 29.2
2014-Oct-01 05:54 240 5 gusting 7 29.3
2014-Oct-01 05:48 250 5 gusting 7 29.2
2014-Oct-01 04:54 250 5 gusting 6 29.2
2014-Oct-01 04:48 260 5 gusting 6 29.1
2014-Oct-01 04:42 250 5 gusting 6 29.2
2014-Oct-01 04:36 250 5 gusting 6 29.2
2014-Oct-01 04:30 260 4 gusting 5 29.2
2014-Oct-01 04:24 270 4 gusting 6 29.2
2014-Oct-01 04:18 270 5 gusting 7 29.3
2014-Oct-01 04:12 270 6 gusting 7 29.3
2014-Oct-01 04:06 260 5 gusting 6 29.3
2014-Oct-01 04:00 280 5 gusting 6 29.3
2014-Oct-01 03:54 280 5 gusting 7 29.3
2014-Oct-01 03:48 290 5 gusting 6 29.3
2014-Oct-01 02:54 300 5 gusting 7 29.3
2014-Oct-01 02:48 290 5 gusting 7 29.3
2014-Oct-01 01:54 320 7 gusting 9 29.6
2014-Oct-01 01:48 310 7 gusting 9 29.6
2014-Oct-01 01:42 300 7 gusting 9 29.6
2014-Oct-01 01:36 310 7 gusting 9 29.6
2014-Oct-01 01:30 300 7 gusting 9 29.5
2014-Oct-01 01:24 300 8 gusting 9 29.6
2014-Oct-01 01:18 310 8 gusting 9 29.6
2014-Oct-01 01:12 310 7 gusting 9 29.6
2014-Oct-01 01:06 310 9 gusting 11 29.7
2014-Oct-01 01:00 310 9 gusting 11 29.7
2014-Oct-01 00:54 300 9 gusting 11 29.7
2014-Oct-01 00:48 300 9 gusting 11 29.7
2014-Sep-30 23:30 300 10 gusting 13 29.5
2014-Sep-30 23:24 300 10 gusting 12 29.6
2014-Sep-30 23:18 300 10 gusting 12 29.6
2014-Sep-30 23:12 300 10 gusting 12 29.5
2014-Sep-30 23:06 300 10 gusting 12 29.5
2014-Sep-30 23:00 290 10 gusting 12 29.5
2014-Sep-30 22:54 300 10 gusting 13 29.5
2014-Sep-30 22:48 290 10 gusting 11 29.6
2014-Sep-30 22:42 300 10 gusting 11 29.5
2014-Sep-30 22:36 300 10 gusting 12 29.6
2014-Sep-30 22:30 300 10 gusting 12 29.6
2014-Sep-30 22:24 300 10 gusting 12 29.6
2014-Sep-30 22:18 290 10 gusting 12 29.6
2014-Sep-30 22:12 290 10 gusting 12 29.7
2014-Sep-30 22:06 300 11 gusting 13 29.7
2014-Sep-30 22:00 290 10 gusting 12 29.7
2014-Sep-30 21:54 290 11 gusting 12 29.8
2014-Sep-30 21:48 290 10 gusting 12 29.7
2014-Sep-30 20:54 290 12 gusting 14 29.7
2014-Sep-30 20:48 290 12 gusting 14 29.7
2014-Sep-30 19:54 290 12 gusting 14 29.7
2014-Sep-30 19:48 280 12 gusting 14 29.6
2014-Sep-30 18:54 270 13 gusting 14 29.6
2014-Sep-30 18:48 270 13 gusting 14 29.6
2014-Sep-30 18:42 270 13 gusting 14 29.6
2014-Sep-30 18:36 270 13 gusting 15 29.7
2014-Sep-30 18:30 270 14 gusting 16 29.6
2014-Sep-30 18:24 270 13 gusting 17 29.6
2014-Sep-30 18:18 270 13 gusting 15 29.6
2014-Sep-30 18:12 270 12 gusting 14 29.6
2014-Sep-30 18:06 270 12 gusting 14 29.5
2014-Sep-30 18:00 270 12 gusting 14 29.5
2014-Sep-30 17:54 270 12 gusting 14 29.5
2014-Sep-30 17:48 260 11 gusting 13 29.5
2014-Sep-30 17:42 250 11 gusting 13 29.5
2014-Sep-30 17:36 250 11 gusting 12 29.5
2014-Sep-30 17:30 270 10 gusting 12 29.5
2014-Sep-30 17:24 270 10 gusting 11 29.5
2014-Sep-30 17:18 270 9 gusting 11 29.5
2014-Sep-30 17:12 270 10 gusting 11 29.5
2014-Sep-30 17:06 260 10 gusting 12 29.5
2014-Sep-30 17:00 260 10 gusting 12 29.5
2014-Sep-30 16:54 260 10 gusting 11 29.5
2014-Sep-30 16:48 260 10 gusting 12 29.5
2014-Sep-30 15:54 240 11 gusting 12 29.3
2014-Sep-30 15:48 240 11 gusting 13 29.3
2014-Sep-30 15:42 240 10 gusting 12 29.3
2014-Sep-30 15:36 240 10 gusting 13 29.2
2014-Sep-30 15:30 240 11 gusting 12 29.1
2014-Sep-30 15:24 230 11 gusting 12 29.1
2014-Sep-30 15:18 240 10 gusting 12 29.1
2014-Sep-30 15:12 230 10 gusting 12 29.1
2014-Sep-30 15:06 230 10 gusting 11 29.1
2014-Sep-30 15:00 230 10 gusting 11 29.2
2014-Sep-30 14:54 240 9 gusting 11 29.2
2014-Sep-30 14:48 230 9 gusting 11 29.1
2014-Sep-30 13:54 230 10 gusting 11 29.1
2014-Sep-30 13:48 230 9 gusting 10 29.1
2014-Sep-30 13:42 230 9 gusting 10 29.1
2014-Sep-30 13:36 220 9 gusting 10 29.1
2014-Sep-30 13:30 230 8 gusting 11 29.1
2014-Sep-30 13:24 230 8 gusting 10 29.1
2014-Sep-30 13:18 230 7 gusting 9 29.1
2014-Sep-30 13:12 230 7 gusting 8 29.1
2014-Sep-30 13:06 230 8 gusting 11 29.1
2014-Sep-30 13:00 240 7 gusting 9 29.1
2014-Sep-30 12:54 240 8 gusting 9 29.1
2014-Sep-30 12:48 230 9 gusting 11 29.1
2014-Sep-30 11:54 250 7 gusting 8 29.1
2014-Sep-30 11:48 250 7 gusting 9 29.0
2014-Sep-30 11:42 230 7 gusting 9 29.0
2014-Sep-30 11:36 270 6 gusting 7 29.0
2014-Sep-30 11:30 250 7 gusting 8 29.0
2014-Sep-30 11:24 250 8 gusting 9 29.0
2014-Sep-30 11:18 250 7 gusting 8 29.1
2014-Sep-30 11:12 240 8 gusting 10 29.1
2014-Sep-30 11:06 250 8 gusting 9 29.1
2014-Sep-30 11:00 250 8 gusting 9 29.1
2014-Sep-30 10:54 250 8 gusting 9 29.1
2014-Sep-30 10:48 250 8 gusting 9 29.1
2014-Sep-30 10:42 250 7 gusting 9 29.1
2014-Sep-30 10:36 240 8 gusting 9 29.0
2014-Sep-30 10:30 240 7 gusting 9 29.0
2014-Sep-30 10:24 250 6 gusting 8 28.9
2014-Sep-30 10:18 250 6 gusting 8 28.9
2014-Sep-30 10:12 250 7 gusting 8 28.9
2014-Sep-30 10:06 250 7 gusting 8 28.9
2014-Sep-30 10:00 240 7 gusting 8 28.9
2014-Sep-30 09:54 240 7 gusting 9 28.9
2014-Sep-30 09:48 240 7 gusting 10 28.9
2014-Sep-30 08:54 250 6 gusting 7 28.9
2014-Sep-30 08:48 250 5 gusting 6 28.9
2014-Sep-30 07:54 260 4 gusting 5 29.0
2014-Sep-30 07:48 270 4 gusting 4 28.9
2014-Sep-30 07:42 260 4 gusting 5 28.9
2014-Sep-30 07:36 260 3 gusting 3 28.9
2014-Sep-30 07:30 270 3 gusting 4 28.9
2014-Sep-30 07:24 270 4 gusting 5 28.9
2014-Sep-30 07:18 270 3 gusting 5 28.9
2014-Sep-30 07:12 270 3 gusting 4 28.9
2014-Sep-30 07:06 280 3 gusting 4 28.9
2014-Sep-30 07:00 290 4 gusting 5 28.9
2014-Sep-30 06:54 280 4 gusting 5 29.0
2014-Sep-30 06:48 260 2 gusting 4 28.9
2014-Sep-30 04:54 090 2 gusting 3 28.9
2014-Sep-30 04:48 090 2 gusting 3 28.9
2014-Sep-30 03:54 28.7
2014-Sep-30 03:48 070 2 gusting 3 28.7
2014-Sep-30 02:54 28.9
2014-Sep-30 02:48 28.9
2014-Sep-30 01:54 340 6 gusting 8 28.9
2014-Sep-30 01:48 350 4 gusting 5 29.0
2014-Sep-30 01:42 350 5 gusting 7 29.0
2014-Sep-30 01:36 340 5 gusting 6 28.9
2014-Sep-30 01:30 340 5 gusting 6 28.9
2014-Sep-30 01:24 340 5 gusting 7 28.9
2014-Sep-30 01:18 340 6 gusting 7 29.0
2014-Sep-30 01:12 330 6 gusting 7 29.0
2014-Sep-30 01:06 330 7 gusting 8 29.0
2014-Sep-30 01:00 330 8 gusting 9 29.1
2014-Sep-30 00:54 310 6 gusting 8 29.1
2014-Sep-30 00:48 330 3 gusting 4 29.0
2014-Sep-29 22:54 280 10 gusting 12 28.6
2014-Sep-29 22:48 290 12 gusting 13 28.6
2014-Sep-29 22:42 280 12 gusting 15 28.8
2014-Sep-29 22:36 280 13 gusting 16 28.8
2014-Sep-29 22:30 280 14 gusting 16 28.6
2014-Sep-29 22:24 260 11 gusting 16 29.1
2014-Sep-29 22:18 240 8 gusting 9 29.6
2014-Sep-29 22:12 230 8 gusting 9 29.7
2014-Sep-29 22:06 230 7 gusting 9 29.7
2014-Sep-29 22:00 230 8 gusting 9 29.7